KBBD - Brady/Curtis Fld, TX, US

Issued at 2331 UTC 05 Dec 2019
Updated at 0344 UTC 06 Dec 2019
Potential Impact None Slight Moderate High
Time0335Z 06/04Z 06/05Z 06/06Z 06/07Z 06/08Z 06/09Z 06/10Z 06/11Z 06/12Z 06/13Z 06/14Z 06/15Z 06/16Z>>
Type OBS PRVL PRVL PRVL PRVL PRVL PRVL PRVL PRVL PRVL PRVL PRVL PRVL PRVL
VIS 10 >6 >6 >6 >6 >6 >6 >6 >6 >6 >6 >6 >6 >6
CIG 50 -- -- -- -- -- -- -- -- -- -- -- -- --
Cover BKN SCT SCT SCT SCT SCT SKC SKC SKC SKC SKC SKC SKC SKC
FltCat VFR VFR VFR VFR VFR VFR VFR VFR VFR VFR VFR VFR VFR VFR
WX -- -- -- -- -- -- -- -- -- -- -- -- -- --
WDir 250 230 230 230 230 230 330 330 330 330 330 330 340 340
WSpd 6 7 7 7 7 7 11 11 11 11 11 11 15 15
WGst -- -- -- -- -- -- -- -- -- -- -- -- -- --
Raw TAF
KBBD 052331Z 0600/0624 23007KT P6SM SCT250
  FM060900 33011KT P6SM SKC
  FM061500 34015KT P6SM SKC


Raw METAR
KBBD 060335Z AUTO 25006KT 10SM FEW041 BKN050 16/04 A3001 RMK AO2
KBBD 060315Z AUTO 25005KT 10SM FEW046 BKN050 17/04 A3000 RMK AO2
KBBD 060255Z AUTO 24008KT 10SM FEW047 SCT055 17/04 A2999 RMK AO2
KBBD 060235Z AUTO 25007KT 10SM FEW050 17/04 A2998 RMK AO2
KBBD 060215Z AUTO 25007KT 10SM FEW050 17/04 A2997 RMK AO2
KBBD 060155Z AUTO 26005KT 10SM CLR 19/03 A2996 RMK AO2
KBBD 060135Z AUTO 23006KT 10SM CLR 19/03 A2995 RMK AO2
KBBD 060115Z AUTO 24004KT 10SM CLR 20/04 A2994 RMK AO2
KBBD 060055Z AUTO 22006KT 10SM CLR 21/04 A2993 RMK AO2
KBBD 060035Z AUTO 22007KT 10SM CLR 22/04 A2993 RMK AO2

METAR Board
Radar Display
Forecast Discussion
For situational awareness. Not to be used for flight planning purposes.